Time;durP1;ratioP1;P1;durP2;ratioP2;P2;SDS_P1;SDS_P2;PMS_P1;PMS_P2;Temp;Humidity;BMP_temperature;BMP_pressure;BME280_temperature;BME280_humidity;BME280_pressure;Samples;Min_cycle;Max_cycle;Signal;HPM_P1;HPM_P2
2022/12/19 00:00:30;;;;;;;25.25;11.30;;;;;;;2.66;63.81;103028.53;6346650;22;20002;-88
2022/12/19 00:04:21;;;;;;;;;;;;;;;;;;;;;
2022/12/19 00:07:20;;;;;;;25.95;12.18;;;;;;;2.72;64.08;103046.06;6377061;22;20035;-89
2022/12/19 00:15:17;;;;;;;34.63;13.10;;;;;;;2.08;66.10;103031.31;6391810;22;20010;-88
2022/12/19 00:18:18;;;;;;;31.23;13.63;;;;;;;2.19;66.19;103060.16;6394353;22;20015;-88
2022/12/19 00:21:32;;;;;;;31.38;13.80;;;;;;;2.00;66.36;103030.66;6361844;22;20049;-87
2022/12/19 00:24:52;;;;;;;32.38;12.93;;;;;;;2.26;66.39;103066.13;6380768;22;20006;-88
2022/12/19 00:27:45;;;;;;;30.73;12.93;;;;;;;2.30;66.27;103068.66;6394369;22;20006;-88
2022/12/19 00:30:33;;;;;;;35.75;13.82;;;;;;;2.00;66.22;103028.00;6372798;22;20006;-85
2022/12/19 00:41:52;;;;;;;33.40;14.20;;;;;;;2.46;64.80;103062.84;6371055;22;20025;-88
2022/12/19 00:45:06;;;;;;;32.13;14.05;;;;;;;2.45;65.52;103072.59;6366559;22;20025;-88
2022/12/19 00:47:37;;;;;;;33.75;14.10;;;;;;;2.48;65.67;103076.94;6367282;22;20014;-88
2022/12/19 00:50:16;;;;;;;34.83;14.20;;;;;;;2.27;65.56;103044.88;6364894;22;20014;-88
2022/12/19 00:52:51;;;;;;;33.22;14.40;;;;;;;2.10;66.64;103079.00;6390687;22;20137;-88
2022/12/19 00:56:03;;;;;;;35.47;14.48;;;;;;;1.90;67.21;103069.88;6369045;22;20112;-88
2022/12/19 00:59:01;;;;;;;33.22;13.50;;;;;;;1.90;66.98;103051.31;6316428;22;20011;-89
2022/12/19 01:01:45;;;;;;;34.03;13.95;;;;;;;2.03;66.53;103040.31;6389979;22;19990;-87
2022/12/19 01:04:15;;;;;;;35.20;13.95;;;;;;;2.04;66.30;103028.78;6359876;22;19994;-88
2022/12/19 01:07:08;;;;;;;33.65;14.40;;;;;;;1.96;65.79;103020.19;6339228;22;20085;-89
2022/12/19 01:09:56;;;;;;;35.60;13.60;;;;;;;1.97;65.98;103043.16;6385007;22;19997;-88
2022/12/19 01:13:10;;;;;;;35.00;14.05;;;;;;;2.15;65.63;103069.09;6358951;22;20014;-86
2022/12/19 01:15:43;;;;;;;31.65;13.55;;;;;;;2.26;65.51;103072.31;6340762;22;20056;-87
2022/12/19 01:19:01;;;;;;;33.33;14.25;;;;;;;2.20;64.87;103040.66;6343674;22;19997;-86
2022/12/19 01:22:34;;;;;;;31.80;12.73;;;;;;;2.04;64.97;103039.41;6393099;22;19994;-88
2022/12/19 01:25:17;;;;;;;33.05;13.45;;;;;;;2.13;64.89;103060.34;6392293;22;20307;-88
2022/12/19 01:28:05;;;;;;;30.48;12.77;;;;;;;2.17;64.74;103050.50;6367529;22;20029;-89
2022/12/19 01:30:37;;;;;;;30.00;13.20;;;;;;;2.23;64.40;103069.75;6361660;22;20064;-88
2022/12/19 01:33:38;;;;;;;31.38;13.45;;;;;;;1.99;64.80;103036.00;6342722;22;20063;-86
2022/12/19 01:36:20;;;;;;;30.77;11.90;;;;;;;1.96;63.91;103030.81;6394541;22;20010;-87
2022/12/19 01:38:51;;;;;;;31.35;12.20;;;;;;;2.04;64.46;103071.25;6393168;22;20018;-88
2022/12/19 01:41:23;;;;;;;32.30;13.95;;;;;;;1.88;65.10;103050.47;6366063;22;20040;-87
2022/12/19 01:44:16;;;;;;;32.63;13.07;;;;;;;1.86;65.11;103052.31;6364633;22;20010;-89
2022/12/19 01:47:07;;;;;;;27.75;12.57;;;;;;;1.92;65.27;103068.94;6365222;22;20269;-88
2022/12/19 01:49:35;;;;;;;31.75;13.05;;;;;;;1.79;65.10;103064.00;6362142;22;20010;-86
2022/12/19 01:52:07;;;;;;;28.27;12.55;;;;;;;1.81;65.25;103075.44;6364913;22;20050;-87
2022/12/19 01:54:54;;;;;;;32.08;13.07;;;;;;;2.00;64.56;103074.91;6363177;22;20059;-86
2022/12/19 01:58:03;;;;;;;31.80;12.77;;;;;;;1.93;64.86;103091.94;6395260;22;20007;-87
2022/12/19 02:00:34;;;;;;;27.08;11.65;;;;;;;1.86;65.23;103091.22;6395536;22;20222;-88
2022/12/19 02:03:09;;;;;;;29.92;12.05;;;;;;;1.57;65.56;103073.50;6393850;22;20112;-88
2022/12/19 02:05:44;;;;;;;30.70;12.27;;;;;;;1.64;65.24;103068.00;6390545;22;20014;-88
2022/12/19 02:08:16;;;;;;;27.85;11.55;;;;;;;1.53;65.45;103055.97;6365270;22;20236;-86
2022/12/19 02:11:05;;;;;;;26.25;11.18;;;;;;;1.46;65.44;103068.50;6313677;22;20036;-87
2022/12/19 02:13:57;;;;;;;29.60;10.57;;;;;;;1.65;64.67;103071.50;6393615;22;20346;-88
2022/12/19 02:17:12;;;;;;;24.55;10.60;;;;;;;1.71;64.92;103092.56;6392782;22;20046;-88
2022/12/19 02:20:11;;;;;;;27.02;11.40;;;;;;;1.64;65.83;103115.72;6368638;22;20026;-87
2022/12/19 02:23:00;;;;;;;30.33;11.98;;;;;;;1.47;66.46;103123.25;6380531;22;20026;-87
2022/12/19 02:26:14;;;;;;;22.83;10.27;;;;;;;1.51;65.73;103114.31;6392199;22;20002;-88
2022/12/19 02:28:58;;;;;;;26.58;10.98;;;;;;;1.39;66.77;103131.44;6394922;22;19994;-87
2022/12/19 02:31:30;;;;;;;19.67;7.68;;;;;;;1.48;65.47;103147.09;6396136;22;20003;-88
2022/12/19 02:34:08;;;;;;;19.73;7.80;;;;;;;1.27;65.45;103134.41;6364411;22;20008;-88
2022/12/19 02:37:21;;;;;;;25.48;10.07;;;;;;;1.24;65.85;103130.06;6379962;22;20055;-85
2022/12/19 02:40:27;;;;;;;23.33;9.68;;;;;;;1.28;65.80;103138.78;6365986;22;20014;-87
2022/12/19 02:43:04;;;;;;;34.10;10.65;;;;;;;1.07;65.63;103131.41;6237303;23;20358;-89
2022/12/19 02:53:24;;;;;;;20.67;8.57;;;;;;;1.19;65.07;103154.94;6298633;22;20030;-88
2022/12/19 02:56:16;;;;;;;22.23;8.77;;;;;;;1.22;64.27;103150.44;6296923;22;20012;-87
2022/12/19 02:59:32;;;;;;;22.33;8.05;;;;;;;1.20;64.76;103164.63;6292048;22;20003;-88
2022/12/19 03:02:24;;;;;;;21.60;8.55;;;;;;;1.24;64.51;103161.88;6295016;22;20008;-90
2022/12/19 03:05:15;;;;;;;22.30;8.98;;;;;;;1.05;64.78;103147.31;6301282;22;19999;-89
2022/12/19 03:08:26;;;;;;;18.23;7.35;;;;;;;0.97;65.38;103170.50;6298992;22;20023;-89
2022/12/19 03:11:30;;;;;;;20.85;7.72;;;;;;;0.96;65.38;103174.94;6296885;22;20007;-89
2022/12/19 03:14:11;;;;;;;23.02;8.30;;;;;;;0.85;65.19;103176.97;6298765;22;20098;-88
2022/12/19 03:16:52;;;;;;;17.52;7.72;;;;;;;0.87;65.73;103179.56;6294700;22;20012;-88
2022/12/19 03:19:45;;;;;;;20.63;7.90;;;;;;;0.79;65.72;103177.09;6295649;22;20011;-87
2022/12/19 03:22:13;;;;;;;19.83;8.32;;;;;;;0.72;65.80;103191.41;6299686;22;19998;-88
2022/12/19 03:25:05;;;;;;;19.95;7.43;;;;;;;0.60;66.21;103197.84;6300594;22;20004;-88
2022/12/19 03:27:36;;;;;;;18.75;8.00;;;;;;;0.48;65.95;103169.88;6287693;22;20019;-88
2022/12/19 03:30:33;;;;;;;17.70;8.00;;;;;;;0.69;65.88;103192.34;6271180;22;20004;-86
2022/12/19 03:33:00;;;;;;;22.60;8.52;;;;;;;0.54;65.76;103167.09;6299957;22;20014;-89
2022/12/19 03:35:41;;;;;;;19.13;7.75;;;;;;;0.84;65.94;103209.63;6273050;22;20067;-89
2022/12/19 03:38:12;;;;;;;18.05;8.05;;;;;;;0.75;65.65;103197.50;6271160;22;20003;-87
2022/12/19 03:40:43;;;;;;;17.85;7.88;;;;;;;0.80;65.39;103195.63;6268756;22;20015;-87
2022/12/19 03:43:10;;;;;;;21.27;8.32;;;;;;;1.00;64.91;103203.06;6272430;22;20010;-87
2022/12/19 03:45:46;;;;;;;17.50;7.25;;;;;;;0.83;64.71;103184.06;6248642;22;20007;-89
2022/12/19 03:48:32;;;;;;;;;;;;;;;0.97;64.79;103212.88;6275233;22;19995;-88
2022/12/19 03:51:42;;;;;;;20.92;6.65;;;;;;;0.86;65.39;103215.78;6298634;22;20292;-88
2022/12/19 03:54:31;;;;;;;20.55;7.45;;;;;;;0.76;65.65;103219.56;6298279;22;20076;-86
2022/12/19 03:57:18;;;;;;;17.63;7.03;;;;;;;0.70;65.62;103220.53;6299358;22;20011;-88
2022/12/19 04:00:14;;;;;;;20.10;7.30;;;;;;;0.72;65.71;103223.16;6271283;22;20068;-88
2022/12/19 04:05:46;;;;;;;18.63;7.00;;;;;;;0.88;64.86;103240.47;6368367;22;20047;-86
2022/12/19 04:12:04;;;;;;;15.70;6.93;;;;;;;0.73;65.28;103228.44;6392777;22;20002;-87
2022/12/19 04:14:54;;;;;;;17.55;6.72;;;;;;;0.30;66.19;103202.03;6392946;22;20044;-89
2022/12/19 04:17:55;;;;;;;17.50;7.38;;;;;;;0.30;66.76;103223.19;6391906;22;20009;-89
2022/12/19 04:21:06;;;;;;;17.40;7.22;;;;;;;0.45;66.65;103217.59;6327098;22;20058;-88
2022/12/19 04:23:47;;;;;;;17.33;6.55;;;;;;;0.59;66.05;103207.56;6307796;22;20097;-89
2022/12/19 04:26:22;;;;;;;19.25;7.65;;;;;;;0.69;66.24;103228.53;6301468;22;20015;-87
2022/12/19 04:32:05;;;;;;;17.57;6.97;;;;;;;0.66;66.04;103218.03;6366875;22;20022;-89
2022/12/19 04:34:37;;;;;;;20.30;7.45;;;;;;;0.82;65.53;103238.84;6387434;22;20007;-86
2022/12/19 04:37:23;;;;;;;19.05;7.32;;;;;;;0.68;65.39;103255.91;6369236;22;19998;-89
2022/12/19 04:40:48;;;;;;;18.63;6.43;;;;;;;0.45;65.67;103251.13;6348015;22;19994;-88
2022/12/19 04:43:18;;;;;;;16.73;6.40;;;;;;;0.50;65.26;103239.53;6365377;22;20053;-86
2022/12/19 04:45:58;;;;;;;15.38;6.35;;;;;;;0.44;65.36;103231.72;6328102;22;20090;-88
2022/12/19 04:48:57;;;;;;;19.38;7.68;;;;;;;0.60;65.34;103256.09;6390998;22;20021;-87
2022/12/19 04:52:07;;;;;;;16.00;7.10;;;;;;;0.52;65.15;103232.44;6383439;22;20013;-87
2022/12/19 04:54:55;;;;;;;18.52;7.40;;;;;;;0.71;65.50;103267.31;6387778;22;20070;-86
2022/12/19 04:57:42;;;;;;;17.08;7.10;;;;;;;0.65;65.11;103259.50;6388583;22;20020;-87
2022/12/19 05:00:17;;;;;;;19.27;7.18;;;;;;;0.65;65.07;103250.69;6388927;22;20003;-87
2022/12/19 05:08:31;;;;;;;20.05;7.72;;;;;;;0.61;65.21;103269.31;6299974;22;20012;-87
2022/12/19 05:11:07;;;;;;;19.45;7.30;;;;;;;0.76;65.34;103297.22;6267311;22;20518;-88
2022/12/19 05:13:56;;;;;;;20.08;7.05;;;;;;;0.87;65.00;103302.28;6246208;22;20034;-88
2022/12/19 05:16:26;;;;;;;22.65;7.90;;;;;;;0.96;64.62;103302.09;6274039;22;20015;-88
2022/12/19 05:19:15;;;;;;;22.50;8.02;;;;;;;0.92;64.20;103303.06;6265904;22;20008;-88
2022/12/19 05:22:14;;;;;;;22.08;7.93;;;;;;;0.87;64.25;103312.00;6274236;22;20015;-89
2022/12/19 05:25:04;;;;;;;16.55;6.47;;;;;;;0.79;63.60;103323.63;6299480;22;20012;-89
2022/12/19 05:27:58;;;;;;;18.25;6.60;;;;;;;0.72;63.15;103323.78;6244325;22;20011;-86
2022/12/19 05:30:32;;;;;;;16.40;6.25;;;;;;;0.71;62.45;103316.78;6298466;22;20007;-88
2022/12/19 05:33:26;;;;;;;16.20;6.32;;;;;;;0.38;61.67;103290.09;6270370;22;20015;-88
2022/12/19 05:35:58;;;;;;;17.80;6.30;;;;;;;0.41;61.64;103317.34;6250982;22;20002;-90
2022/12/19 05:38:44;;;;;;;17.98;6.82;;;;;;;0.19;62.16;103316.91;6300809;22;20006;-86
2022/12/19 05:41:23;;;;;;;17.10;6.38;;;;;;;0.16;62.22;103329.31;6299046;22;20003;-87
2022/12/19 05:43:55;;;;;;;12.73;5.75;;;;;;;0.05;62.18;103341.84;6273635;22;20061;-89
2022/12/19 05:46:47;;;;;;;18.48;6.70;;;;;;;-0.15;62.01;103334.28;6271038;22;20007;-89
2022/12/19 05:49:19;;;;;;;16.50;6.18;;;;;;;-0.18;62.51;103342.28;6294437;22;20042;-88
2022/12/19 05:52:11;;;;;;;13.85;5.25;;;;;;;-0.26;62.83;103345.91;6263852;22;20026;-89
2022/12/19 05:55:19;;;;;;;15.10;6.15;;;;;;;-0.38;63.23;103353.16;6282514;22;20007;-88
2022/12/19 05:57:46;;;;;;;12.18;5.70;;;;;;;-0.45;64.03;103362.94;6281882;22;20019;-88
2022/12/19 06:00:20;;;;;;;18.00;5.97;;;;;;;-0.54;63.70;103363.09;6246011;22;20082;-89
2022/12/19 06:02:54;;;;;;;19.23;6.35;;;;;;;-0.73;64.06;103347.50;6266775;22;20008;-89
2022/12/19 06:05:31;;;;;;;17.23;5.88;;;;;;;-0.64;63.96;103368.50;6246163;22;20012;-90
2022/12/19 06:08:06;;;;;;;15.07;5.97;;;;;;;-0.80;64.53;103356.41;6278933;22;20020;-89
2022/12/19 06:10:59;;;;;;;15.60;5.68;;;;;;;-0.56;64.38;103363.13;6277931;22;20006;-88
2022/12/19 06:13:30;;;;;;;23.38;10.18;;;;;;;-0.46;64.29;103387.66;6298207;22;20015;-87
2022/12/19 06:16:41;;;;;;;20.70;6.18;;;;;;;-0.54;63.52;103386.88;6327102;22;20050;-86
2022/12/19 06:19:31;;;;;;;15.65;6.03;;;;;;;-0.54;63.93;103389.50;6309253;22;19991;-89
2022/12/19 06:22:30;;;;;;;18.70;5.93;;;;;;;-0.46;62.75;103411.44;6306827;22;20006;-89
2022/12/19 06:30:30;;;;;;;16.13;6.10;;;;;;;-0.44;62.84;103391.16;6329973;22;20023;-90
2022/12/19 06:33:04;;;;;;;23.73;7.35;;;;;;;-0.35;63.36;103398.03;6278674;22;19999;-91
2022/12/19 06:36:00;;;;;;;16.42;6.35;;;;;;;-0.24;62.93;103399.63;6307110;22;19995;-88
2022/12/19 06:59:38;;;;;;;18.42;6.35;;;;;;;0.81;57.82;103446.31;6268975;22;20020;-91
2022/12/19 07:02:46;;;;;;;16.48;6.15;;;;;;;0.70;57.64;103415.63;6268361;23;20019;-89
2022/12/19 08:44:38;;;;;;;17.88;8.73;;;;;;;17.34;23.41;103480.16;6309774;22;20007;-88
2022/12/19 08:47:20;;;;;;;15.20;8.93;;;;;;;17.84;22.40;103461.13;6331850;22;20003;-90
2022/12/19 08:55:37;;;;;;;15.48;9.35;;;;;;;20.54;19.25;103466.66;6326366;22;20019;-91
2022/12/19 08:58:51;;;;;;;17.73;9.05;;;;;;;20.85;18.69;103441.59;6330602;22;20022;-91
2022/12/19 09:04:28;;;;;;;16.88;8.43;;;;;;;21.22;18.36;103435.81;6301286;22;20015;-90
2022/12/19 09:18:31;;;;;;;14.45;8.25;;;;;;;21.68;16.48;103443.66;6354277;22;20037;-92
2022/12/19 09:35:52;;;;;;;16.15;8.63;;;;;;;23.66;15.23;103401.16;6366836;22;20010;-89
2022/12/19 09:44:44;;;;;;;15.93;8.35;;;;;;;24.30;14.71;103411.81;6302226;22;20366;-90
2022/12/19 09:55:23;;;;;;;;;;;;;;;24.96;13.79;103398.25;6304755;22;20022;-95
2022/12/19 09:58:25;;;;;;;14.00;8.15;;;;;;;25.82;13.19;103395.66;6393818;22;19941;-94
2022/12/19 10:01:56;;;;;;;13.25;7.65;;;;;;;25.05;13.14;103340.16;6314455;22;20005;-93
2022/12/19 11:30:08;;;;;;;9.25;5.93;;;;;;;19.31;18.61;103328.97;6271390;22;20248;-93
2022/12/19 11:36:39;;;;;;;10.82;6.50;;;;;;;18.63;19.88;103298.50;6235930;22;20012;-96
2022/12/19 12:23:52;;;;;;;11.32;5.90;;;;;;;11.41;28.21;103331.97;6383835;22;20417;-91
2022/12/19 12:40:04;;;;;;;14.70;6.93;;;;;;;9.07;33.55;103302.34;6323915;22;20049;-93
2022/12/19 13:19:36;;;;;;;14.83;7.27;;;;;;;4.35;43.61;103365.81;6354675;22;20055;-93
2022/12/19 13:26:43;;;;;;;13.43;7.10;;;;;;;3.62;44.58;103363.00;6297765;22;20022;-91
2022/12/19 13:29:33;;;;;;;;;;;;;;;3.41;45.83;103402.66;6297056;22;20045;-93
2022/12/19 13:32:21;;;;;;;11.82;6.25;;;;;;;3.31;46.46;103387.91;6342203;22;19914;-90
2022/12/19 15:39:07;;;;;;;18.52;8.00;;;;;;;-2.21;62.94;103463.41;6352786;22;20085;-90
2022/12/19 17:19:58;;;;;;;16.67;7.78;;;;;;;-1.65;63.84;103487.63;6388498;22;20026;-88
2022/12/19 17:23:22;;;;;;;19.13;8.25;;;;;;;-1.67;63.76;103458.59;6370079;22;20051;-91
2022/12/19 17:43:43;;;;;;;17.55;7.20;;;;;;;-1.76;65.23;103463.97;6384838;22;20022;-89
2022/12/19 17:47:05;;;;;;;16.50;7.53;;;;;;;-1.75;65.54;103457.81;6307410;22;20053;-90
2022/12/19 17:52:38;;;;;;;13.03;6.50;;;;;;;-1.50;64.99;103464.63;6360062;22;20038;-88
2022/12/19 21:34:36;;;;;;;19.98;8.07;;;;;;;-1.37;68.91;103366.84;6324818;22;20035;-89
2022/12/19 21:37:16;;;;;;;18.88;8.32;;;;;;;-1.42;69.33;103355.47;6294365;22;20016;-90
2022/12/19 21:40:17;;;;;;;18.05;7.78;;;;;;;-1.36;69.36;103365.94;6300255;22;20086;-89
2022/12/19 21:43:51;;;;;;;15.25;7.50;;;;;;;-0.95;68.75;103405.03;6301785;22;20055;-90
2022/12/19 21:46:59;;;;;;;19.48;8.00;;;;;;;-0.92;68.44;103378.59;6331308;22;20003;-88
2022/12/19 21:52:44;;;;;;;19.20;7.93;;;;;;;-0.76;67.75;103379.25;6390003;22;20024;-88
2022/12/19 21:55:24;;;;;;;16.48;7.70;;;;;;;-0.91;67.80;103359.22;6392647;22;20006;-89
2022/12/19 21:58:32;;;;;;;17.17;7.68;;;;;;;-0.87;67.75;103334.53;6367284;22;20007;-89
2022/12/19 22:01:18;;;;;;;17.92;7.53;;;;;;;-0.61;67.58;103375.50;6384968;22;19987;-90
2022/12/19 22:04:07;;;;;;;;;;;;;;;-0.68;67.84;103361.53;6375905;22;20020;-88
2022/12/19 22:07:06;;;;;;;17.17;7.00;;;;;;;-0.79;68.30;103366.09;6330684;22;19902;-89
2022/12/19 22:10:13;;;;;;;19.70;7.60;;;;;;;-1.13;68.01;103304.94;6327463;22;20015;-90
2022/12/19 22:13:02;;;;;;;15.68;7.28;;;;;;;-0.65;67.89;103363.25;6317754;22;20015;-89
2022/12/19 22:16:05;;;;;;;19.00;7.00;;;;;;;-1.11;68.45;103326.91;6324642;22;20340;-88
2022/12/19 22:19:01;;;;;;;16.70;7.43;;;;;;;-1.04;68.49;103320.66;6299703;22;20011;-89
2022/12/19 22:21:48;;;;;;;16.67;7.28;;;;;;;-0.95;68.55;103319.66;6311924;22;20018;-89
2022/12/19 22:25:00;;;;;;;19.25;7.93;;;;;;;-0.88;67.84;103308.97;6298904;22;20012;-89
2022/12/19 22:28:11;;;;;;;18.35;6.95;;;;;;;-0.53;67.62;103347.22;6328226;22;20054;-89
2022/12/19 22:30:45;;;;;;;20.35;8.48;;;;;;;-0.87;67.59;103294.00;6327418;22;20088;-88
2022/12/19 22:33:43;;;;;;;18.55;7.80;;;;;;;-1.01;68.59;103306.53;6305733;22;20007;-87
2022/12/19 22:36:18;;;;;;;18.45;7.75;;;;;;;-0.66;67.43;103321.88;6330127;22;20521;-88
2022/12/19 22:39:23;;;;;;;19.77;7.13;;;;;;;-0.77;67.60;103308.84;6326995;22;20016;-89
2022/12/19 22:42:22;;;;;;;17.75;7.65;;;;;;;-0.49;67.05;103319.00;6360218;22;20040;-88
2022/12/19 22:44:59;;;;;;;16.50;7.15;;;;;;;-0.49;67.15;103340.13;6337570;22;20027;-87
2022/12/19 22:48:04;;;;;;;17.60;7.20;;;;;;;-0.79;67.38;103310.63;6361705;22;20002;-91
2022/12/19 22:50:32;;;;;;;16.83;6.90;;;;;;;-0.68;67.49;103308.69;6361667;22;20051;-88
2022/12/19 22:53:21;;;;;;;18.65;7.63;;;;;;;-0.54;67.50;103336.66;6283596;22;20021;-88
2022/12/19 22:56:08;;;;;;;21.05;7.40;;;;;;;-0.51;67.15;103326.94;6358372;22;20018;-87
2022/12/19 22:59:14;;;;;;;15.60;6.97;;;;;;;-0.73;67.29;103289.38;6356459;22;20006;-88
2022/12/19 23:02:05;;;;;;;17.35;7.95;;;;;;;-0.83;67.42;103277.22;6327504;22;20007;-86
2022/12/19 23:04:41;;;;;;;18.80;7.40;;;;;;;-0.67;67.37;103291.94;6357215;22;19991;-88
2022/12/19 23:07:33;;;;;;;18.77;7.93;;;;;;;-0.93;67.75;103275.63;6357759;22;20003;-85
2022/12/19 23:10:26;;;;;;;16.05;7.15;;;;;;;-0.72;67.19;103259.44;6354442;22;20335;-88
2022/12/19 23:13:29;;;;;;;19.48;7.65;;;;;;;-0.68;67.71;103298.13;6334288;22;20018;-87
2022/12/19 23:16:32;;;;;;;16.65;6.93;;;;;;;-0.96;67.86;103255.41;6360523;22;19998;-88
2022/12/19 23:19:27;;;;;;;17.70;7.47;;;;;;;-0.88;68.15;103271.13;6336762;22;20019;-87
2022/12/19 23:22:05;;;;;;;18.77;7.32;;;;;;;-0.58;67.94;103283.00;6325641;22;20067;-88
2022/12/19 23:24:49;;;;;;;17.00;7.32;;;;;;;-0.72;67.88;103254.16;6360380;22;20002;-87
2022/12/19 23:27:19;;;;;;;17.33;7.47;;;;;;;-0.83;68.20;103255.22;6358833;22;20045;-87
2022/12/19 23:29:58;;;;;;;17.52;6.88;;;;;;;-0.82;68.12;103242.00;6348525;22;20036;-88
2022/12/19 23:32:27;;;;;;;17.42;7.88;;;;;;;-0.53;67.57;103273.22;6361921;22;20003;-86
2022/12/19 23:34:58;;;;;;;16.83;7.57;;;;;;;-0.56;68.01;103278.56;6368591;22;20006;-86
2022/12/19 23:37:46;;;;;;;17.42;7.15;;;;;;;-0.66;67.80;103254.06;6390916;22;20034;-88
2022/12/19 23:40:34;;;;;;;15.82;7.03;;;;;;;-0.54;68.15;103274.13;6390232;22;20139;-85
2022/12/19 23:43:32;;;;;;;17.00;7.53;;;;;;;-0.73;68.18;103230.38;6390053;22;20078;-89
2022/12/19 23:48:33;;;;;;;19.85;7.60;;;;;;;-0.51;67.34;103247.63;6299592;22;20074;-87
2022/12/19 23:51:40;;;;;;;18.13;7.63;;;;;;;-0.31;67.72;103281.66;6297592;22;20014;-87
2022/12/19 23:54:17;;;;;;;16.88;7.40;;;;;;;-0.51;67.65;103250.28;6293538;22;20012;-88
2022/12/19 23:57:30;;;;;;;15.20;6.95;;;;;;;-0.19;67.38;103290.28;6299749;22;20002;-88
